Time;durP1;ratioP1;P1;durP2;ratioP2;P2;SDS_P1;SDS_P2;PMS_P1;PMS_P2;Temp;Humidity;BMP_temperature;BMP_pressure;BME280_temperature;BME280_humidity;BME280_pressure;Samples;Min_cycle;Max_cycle;Signal;HPM_P1;HPM_P2
2024/01/31 00:01:35;;;;;;;2.25;0.82;;;;;;;3.70;100.00;103324.69;5018207;28;20057;-74
2024/01/31 00:04:21;;;;;;;2.58;0.80;;;;;;;3.72;100.00;103323.00;5013383;28;20045;-74
2024/01/31 00:07:07;;;;;;;2.08;1.10;;;;;;;3.72;100.00;103339.63;5007927;28;20041;-74
2024/01/31 00:09:53;;;;;;;1.48;0.90;;;;;;;3.76;100.00;103343.19;5015404;28;20041;-74
2024/01/31 00:12:39;;;;;;;2.22;1.25;;;;;;;3.76;100.00;103338.81;5006486;28;20452;-74
2024/01/31 00:15:24;;;;;;;5.65;1.17;;;;;;;3.77;100.00;103343.19;5003930;28;20068;-74
2024/01/31 00:18:10;;;;;;;1.63;0.80;;;;;;;3.78;100.00;103338.84;5021025;28;20456;-74
2024/01/31 00:20:56;;;;;;;7.32;1.10;;;;;;;3.78;100.00;103346.72;5025066;28;20116;-74
2024/01/31 00:23:41;;;;;;;1.80;1.00;;;;;;;3.80;100.00;103350.25;5025365;28;20087;-74
2024/01/31 00:26:27;;;;;;;5.28;1.02;;;;;;;3.80;100.00;103352.88;5022667;28;20064;-74
2024/01/31 00:29:13;;;;;;;2.30;1.10;;;;;;;3.81;100.00;103354.63;5024592;28;20044;-72
2024/01/31 00:31:59;;;;;;;4.88;1.13;;;;;;;3.82;100.00;103355.53;5011516;28;20110;-74
2024/01/31 00:34:44;;;;;;;3.15;0.90;;;;;;;3.83;100.00;103358.22;5022982;28;20037;-73
2024/01/31 00:37:30;;;;;;;3.05;0.80;;;;;;;3.83;100.00;103346.81;5022758;28;20036;-73
2024/01/31 00:40:16;;;;;;;0.70;0.70;;;;;;;3.84;100.00;103352.09;5025241;28;20095;-73
2024/01/31 00:43:01;;;;;;;2.13;0.68;;;;;;;3.86;100.00;103341.66;5025019;28;20136;-73
2024/01/31 00:45:47;;;;;;;2.55;1.10;;;;;;;3.86;100.00;103346.91;5020802;28;20033;-75
2024/01/31 00:48:33;;;;;;;1.83;0.73;;;;;;;3.87;100.00;103338.19;5024327;28;20124;-73
2024/01/31 00:51:19;;;;;;;1.52;0.88;;;;;;;3.86;100.00;103347.78;5023876;28;20037;-73
2024/01/31 00:54:05;;;;;;;4.18;1.10;;;;;;;3.85;100.00;103340.78;5023482;28;20045;-73
2024/01/31 00:56:53;;;;;;;2.67;1.00;;;;;;;3.86;100.00;103337.28;5024835;28;20033;-73
2024/01/31 00:59:40;;;;;;;3.10;1.00;;;;;;;3.84;100.00;103323.28;5005249;28;20703;-73
2024/01/31 01:02:28;;;;;;;1.77;0.88;;;;;;;3.79;100.00;103319.66;5023355;28;20492;-73
2024/01/31 01:05:14;;;;;;;5.00;0.90;;;;;;;3.76;100.00;103316.97;5021870;28;20563;-73
2024/01/31 01:08:00;;;;;;;1.73;0.75;;;;;;;3.72;100.00;103323.00;5022482;28;20045;-73
2024/01/31 01:10:46;;;;;;;2.20;0.85;;;;;;;3.69;100.00;103320.31;5022312;28;20046;-73
2024/01/31 01:13:32;;;;;;;6.10;0.90;;;;;;;3.65;100.00;103324.59;5020861;28;20539;-73
2024/01/31 01:16:18;;;;;;;3.38;1.00;;;;;;;3.62;100.00;103322.78;4994234;28;20236;-73
2024/01/31 01:19:04;;;;;;;2.35;0.95;;;;;;;3.59;100.00;103330.56;5009093;28;20507;-73
2024/01/31 01:21:50;;;;;;;4.50;0.80;;;;;;;3.57;100.00;103321.78;5022627;28;20041;-73
2024/01/31 01:24:36;;;;;;;3.83;1.15;;;;;;;3.56;100.00;103324.38;5021548;28;20044;-73
2024/01/31 01:27:22;;;;;;;5.05;0.82;;;;;;;3.54;100.00;103329.56;5022779;28;20134;-73
2024/01/31 01:30:08;;;;;;;4.10;1.10;;;;;;;3.50;100.00;103330.34;5009913;28;20033;-73
2024/01/31 01:32:54;;;;;;;2.33;1.00;;;;;;;3.48;100.00;103326.81;5021028;28;20456;-73
2024/01/31 01:35:40;;;;;;;4.85;0.93;;;;;;;3.45;100.00;103340.72;5004097;28;20122;-73
2024/01/31 01:38:32;;;;;;;4.00;1.00;;;;;;;3.42;100.00;103335.38;5021946;28;20072;-74
2024/01/31 01:41:18;;;;;;;1.75;0.70;;;;;;;3.39;100.00;103330.97;5022753;28;20760;-73
2024/01/31 01:44:04;;;;;;;1.63;0.60;;;;;;;3.37;100.00;103327.44;5026745;28;20056;-74
2024/01/31 01:46:49;;;;;;;2.88;0.70;;;;;;;3.37;100.00;103335.28;5027386;28;20076;-74
2024/01/31 01:49:36;;;;;;;1.85;0.82;;;;;;;3.36;100.00;103336.13;5027044;28;20091;-74
2024/01/31 01:52:24;;;;;;;2.95;0.80;;;;;;;3.36;100.00;103336.13;4999686;28;20041;-74
2024/01/31 01:55:10;;;;;;;4.63;0.90;;;;;;;3.37;100.00;103342.25;5029756;28;20038;-73
2024/01/31 01:57:56;;;;;;;3.35;0.70;;;;;;;3.36;100.00;103330.00;5009707;28;20036;-74
2024/01/31 02:00:44;;;;;;;4.38;0.95;;;;;;;3.35;100.00;103329.13;5012955;28;20566;-74
2024/01/31 02:03:30;;;;;;;1.52;0.70;;;;;;;3.35;100.00;103326.50;5015899;28;20045;-74
2024/01/31 02:06:16;;;;;;;3.55;0.70;;;;;;;3.35;100.00;103317.75;5028439;28;20121;-73
2024/01/31 02:09:03;;;;;;;2.05;0.60;;;;;;;3.35;100.00;103318.66;5031081;28;20049;-73
2024/01/31 02:11:51;;;;;;;5.32;1.00;;;;;;;3.36;100.00;103324.75;5011024;28;20037;-74
2024/01/31 02:14:37;;;;;;;3.70;0.88;;;;;;;3.36;100.00;103316.91;5027803;28;20116;-74
2024/01/31 02:17:23;;;;;;;6.25;1.00;;;;;;;3.36;100.00;103311.66;5016706;28;20037;-73
2024/01/31 02:20:15;;;;;;;2.85;0.98;;;;;;;3.36;100.00;103315.19;5030121;28;20118;-74
2024/01/31 02:23:01;;;;;;;1.38;0.52;;;;;;;3.37;100.00;103310.81;5030686;28;20640;-73
2024/01/31 02:25:47;;;;;;;3.72;0.65;;;;;;;3.36;100.00;103325.66;5015605;28;20033;-73
2024/01/31 02:28:33;;;;;;;3.03;0.85;;;;;;;3.38;100.00;103317.84;5023327;28;20124;-73
2024/01/31 02:31:22;;;;;;;1.38;0.75;;;;;;;3.37;100.00;103319.56;5026317;28;20102;-74
2024/01/31 02:34:07;;;;;;;2.38;0.90;;;;;;;3.36;100.00;103309.94;5028864;28;20056;-73
2024/01/31 02:37:02;;;;;;;2.05;0.60;;;;;;;3.33;100.00;103304.63;5026369;28;20048;-74
2024/01/31 02:39:49;;;;;;;5.32;0.70;;;;;;;3.31;100.00;103316.81;5015468;28;20049;-73
2024/01/31 02:42:34;;;;;;;0.93;0.80;;;;;;;3.29;100.00;103308.03;5029175;28;20179;-73
2024/01/31 02:45:20;;;;;;;0.40;0.40;;;;;;;3.29;100.00;103299.28;5013111;28;20774;-73
2024/01/31 02:48:08;;;;;;;0.50;0.50;;;;;;;3.26;100.00;103294.84;5024127;28;20064;-73
2024/01/31 02:50:53;;;;;;;3.47;0.73;;;;;;;3.26;100.00;103297.47;5025246;28;20041;-73
2024/01/31 02:53:40;;;;;;;0.75;0.65;;;;;;;3.22;100.00;103301.75;5008132;28;20075;-73
2024/01/31 02:56:25;;;;;;;2.55;0.50;;;;;;;3.20;100.00;103297.31;5026328;28;20037;-73
2024/01/31 02:59:11;;;;;;;2.70;0.50;;;;;;;3.20;100.00;103297.31;5027164;28;20029;-73
2024/01/31 03:01:58;;;;;;;0.40;0.40;;;;;;;3.17;100.00;103289.41;5028167;28;20033;-73
2024/01/31 03:04:44;;;;;;;0.40;0.40;;;;;;;3.15;100.00;103294.59;5028104;28;20040;-73
2024/01/31 03:07:29;;;;;;;0.90;0.60;;;;;;;3.14;100.00;103290.19;5015212;28;20102;-73
2024/01/31 03:10:15;;;;;;;0.75;0.60;;;;;;;3.12;100.00;103279.69;5026783;28;20088;-74
2024/01/31 03:13:01;;;;;;;2.33;0.57;;;;;;;3.15;100.00;103283.25;5024856;28;20044;-73
2024/01/31 03:15:47;;;;;;;3.45;0.50;;;;;;;3.14;100.00;103277.09;5023488;28;20061;-73
2024/01/31 03:18:32;;;;;;;1.58;0.47;;;;;;;3.14;100.00;103281.47;5024502;28;20053;-74
2024/01/31 03:21:21;;;;;;;1.20;0.55;;;;;;;3.12;100.00;103281.44;5023957;28;20119;-73
2024/01/31 03:24:07;;;;;;;1.25;0.60;;;;;;;3.12;100.00;103282.28;5027090;28;20046;-74
2024/01/31 03:26:53;;;;;;;2.50;0.70;;;;;;;3.12;100.00;103274.44;5027647;28;20443;-74
2024/01/31 03:29:38;;;;;;;2.45;0.68;;;;;;;3.12;100.00;103279.69;5024760;28;20049;-75
2024/01/31 03:32:24;;;;;;;0.63;0.60;;;;;;;3.12;100.00;103269.22;5022978;28;20041;-75
2024/01/31 03:35:10;;;;;;;3.00;0.80;;;;;;;3.16;100.00;103274.53;5024213;28;20061;-74
2024/01/31 03:37:56;;;;;;;1.17;0.63;;;;;;;3.15;100.00;103265.78;5010696;28;20157;-74
2024/01/31 03:40:42;;;;;;;2.55;1.13;;;;;;;3.17;100.00;103278.91;5011095;28;20085;-74
2024/01/31 03:43:28;;;;;;;1.95;0.50;;;;;;;3.18;100.00;103263.25;5021759;28;20128;-75
2024/01/31 03:46:17;;;;;;;1.60;0.70;;;;;;;3.20;100.00;103271.13;5026182;28;20041;-74
2024/01/31 03:49:03;;;;;;;0.70;0.52;;;;;;;3.22;100.00;103262.47;5012864;28;20553;-74
2024/01/31 03:51:49;;;;;;;2.85;0.70;;;;;;;3.23;100.00;103263.38;5014685;28;20037;-75
2024/01/31 03:54:35;;;;;;;3.92;0.70;;;;;;;3.25;100.00;103264.28;5025291;28;20043;-74
2024/01/31 03:57:21;;;;;;;0.70;0.70;;;;;;;3.24;100.00;103263.41;5025076;28;20149;-74
2024/01/31 04:00:09;;;;;;;0.98;0.60;;;;;;;3.25;100.00;103253.81;4995876;28;20388;-74
2024/01/31 04:02:54;;;;;;;1.08;0.60;;;;;;;3.25;100.00;103264.28;5022217;28;20044;-75
2024/01/31 04:05:42;;;;;;;1.42;0.63;;;;;;;3.26;100.00;103252.94;5021023;28;20120;-74
2024/01/31 04:08:27;;;;;;;2.50;0.75;;;;;;;3.25;100.00;103257.31;5011245;28;20038;-73
2024/01/31 04:11:14;;;;;;;0.80;0.63;;;;;;;3.27;100.00;103267.81;5024138;28;20051;-75
2024/01/31 04:14:03;;;;;;;1.27;0.75;;;;;;;3.28;100.00;103263.47;5013175;28;20463;-74
2024/01/31 04:16:49;;;;;;;4.25;0.95;;;;;;;3.29;100.00;103258.28;5022934;28;21948;-76
2024/01/31 04:19:34;;;;;;;2.75;0.80;;;;;;;3.30;100.00;103259.13;5023388;28;20416;-73
2024/01/31 04:22:20;;;;;;;2.72;0.70;;;;;;;3.31;100.00;103253.94;5023068;28;20455;-74
2024/01/31 04:25:06;;;;;;;3.28;0.98;;;;;;;3.32;100.00;103245.25;5025602;28;21064;-74
2024/01/31 04:27:53;;;;;;;1.20;0.63;;;;;;;3.33;100.00;103252.25;5022084;28;20021;-74
2024/01/31 04:30:39;;;;;;;2.30;0.80;;;;;;;3.34;100.00;103242.66;5010579;28;20061;-75
2024/01/31 04:33:25;;;;;;;2.15;0.88;;;;;;;3.35;100.00;103245.31;5021711;28;20037;-75
2024/01/31 04:36:11;;;;;;;6.85;0.93;;;;;;;3.36;100.00;103241.84;5025512;28;20048;-75
2024/01/31 04:38:57;;;;;;;0.70;0.70;;;;;;;3.37;100.00;103224.38;5006201;28;20657;-75
2024/01/31 04:41:43;;;;;;;1.77;0.65;;;;;;;3.37;100.00;103225.28;5025402;28;20041;-74
2024/01/31 04:44:28;;;;;;;3.55;0.98;;;;;;;3.37;100.00;103233.16;5023586;28;20115;-75
2024/01/31 04:47:15;;;;;;;5.60;0.70;;;;;;;3.37;100.00;103227.00;5015176;28;20404;-75
2024/01/31 04:50:01;;;;;;;6.13;0.70;;;;;;;3.36;100.00;103220.00;5024653;28;20045;-74
2024/01/31 04:52:47;;;;;;;7.40;0.90;;;;;;;3.35;100.00;103219.16;5023794;28;20124;-74
2024/01/31 04:55:36;;;;;;;1.38;0.70;;;;;;;3.33;100.00;103210.34;5024374;28;20040;-74
2024/01/31 04:58:22;;;;;;;3.13;0.70;;;;;;;3.32;100.00;103208.56;5023059;28;20455;-74
2024/01/31 05:01:08;;;;;;;4.38;0.80;;;;;;;3.31;100.00;103204.19;5009078;28;20054;-74
2024/01/31 05:03:57;;;;;;;4.85;1.00;;;;;;;3.29;100.00;103213.75;5021334;28;20043;-75
2024/01/31 05:06:43;;;;;;;2.42;0.60;;;;;;;3.30;100.00;103212.00;5023138;28;20071;-75
2024/01/31 05:09:31;;;;;;;2.53;0.95;;;;;;;3.30;100.00;103225.09;5025294;28;20052;-75
2024/01/31 05:12:17;;;;;;;3.95;0.60;;;;;;;3.29;100.00;103232.09;5012070;28;20041;-74
2024/01/31 05:15:04;;;;;;;4.18;1.05;;;;;;;3.27;100.00;103220.66;5007346;28;20181;-75
2024/01/31 05:17:50;;;;;;;1.92;0.60;;;;;;;3.22;100.00;103217.94;5023166;28;20049;-75
2024/01/31 05:20:36;;;;;;;5.28;1.17;;;;;;;3.18;100.00;103223.09;5020005;28;20052;-74
2024/01/31 05:23:22;;;;;;;2.88;0.77;;;;;;;3.12;100.00;103219.47;5021644;28;20948;-74
2024/01/31 05:26:17;;;;;;;3.53;0.80;;;;;;;3.07;100.00;103221.13;5023596;28;20117;-73
2024/01/31 05:29:03;;;;;;;3.25;1.00;;;;;;;3.02;100.00;103225.34;5005591;28;20988;-75
2024/01/31 05:31:49;;;;;;;6.75;1.13;;;;;;;2.95;100.00;103218.19;5008428;28;20492;-75
2024/01/31 05:34:35;;;;;;;0.90;0.77;;;;;;;2.91;100.00;103211.09;4996453;28;20055;-75
2024/01/31 05:37:21;;;;;;;5.10;0.98;;;;;;;2.84;100.00;103210.94;5008345;28;20025;-74
2024/01/31 05:40:08;;;;;;;4.55;1.10;;;;;;;2.78;100.00;103217.78;5024371;28;20088;-75
2024/01/31 05:42:54;;;;;;;5.38;1.00;;;;;;;2.72;100.00;103221.09;4991659;28;20041;-75
2024/01/31 05:45:39;;;;;;;4.20;1.08;;;;;;;2.66;100.00;103218.34;5020592;28;20049;-73
2024/01/31 05:48:25;;;;;;;4.88;1.00;;;;;;;2.62;100.00;103213.88;5023974;28;20373;-74
2024/01/31 05:51:11;;;;;;;4.30;0.82;;;;;;;2.58;100.00;103203.31;5026088;28;20042;-75
2024/01/31 05:53:57;;;;;;;2.63;1.02;;;;;;;2.53;100.00;103210.19;5021023;28;20048;-74
2024/01/31 05:56:42;;;;;;;3.72;1.77;;;;;;;2.49;100.00;103208.31;5023793;28;20044;-75
2024/01/31 05:59:28;;;;;;;3.30;1.10;;;;;;;2.46;100.00;103204.72;5007396;28;20686;-74
2024/01/31 06:02:14;;;;;;;2.22;1.30;;;;;;;2.40;100.00;103206.34;5010017;28;20009;-75
2024/01/31 06:05:00;;;;;;;3.67;1.38;;;;;;;2.38;100.00;103217.59;5022700;28;20045;-76
2024/01/31 06:07:46;;;;;;;2.65;1.15;;;;;;;2.35;100.00;103223.66;5023448;28;20538;-74
2024/01/31 06:10:32;;;;;;;2.92;0.90;;;;;;;2.31;100.00;103229.63;5021915;28;20045;-75
2024/01/31 06:13:17;;;;;;;6.40;1.10;;;;;;;2.27;100.00;103246.97;5007147;28;20165;-73
2024/01/31 06:16:04;;;;;;;5.35;1.52;;;;;;;2.25;100.00;103260.81;5021061;28;20511;-75
2024/01/31 06:18:51;;;;;;;2.88;1.10;;;;;;;2.24;100.00;103261.69;5026905;28;20040;-73
2024/01/31 06:21:36;;;;;;;2.60;1.27;;;;;;;2.19;100.00;103274.63;5024373;28;20045;-74
2024/01/31 06:24:22;;;;;;;5.15;1.30;;;;;;;2.14;100.00;103277.06;5020837;28;20036;-74
2024/01/31 06:27:08;;;;;;;4.22;1.40;;;;;;;2.12;100.00;103281.38;5010017;28;20134;-74
2024/01/31 06:29:54;;;;;;;2.95;1.20;;;;;;;2.11;100.00;103290.06;5028257;28;20118;-74
2024/01/31 06:32:47;;;;;;;1.70;1.17;;;;;;;2.11;100.00;103299.63;5013216;28;20106;-73
2024/01/31 06:35:34;;;;;;;5.38;1.75;;;;;;;2.12;100.00;103302.28;5029752;28;20425;-75
2024/01/31 06:38:19;;;;;;;5.75;1.83;;;;;;;2.13;100.00;103313.66;5013468;28;20037;-74
2024/01/31 06:41:05;;;;;;;2.25;1.38;;;;;;;2.16;100.00;103324.19;5028350;28;20057;-74
2024/01/31 06:43:51;;;;;;;4.13;1.63;;;;;;;2.18;100.00;103327.72;5025425;28;20049;-75
2024/01/31 06:46:38;;;;;;;3.67;1.50;;;;;;;2.22;100.00;103331.34;5027108;28;20041;-74
2024/01/31 06:49:24;;;;;;;4.22;1.50;;;;;;;2.26;100.00;103341.03;5027386;28;20056;-74
2024/01/31 06:52:11;;;;;;;6.32;1.92;;;;;;;2.28;100.00;103339.34;5032911;28;20037;-77
2024/01/31 06:54:57;;;;;;;5.35;1.75;;;;;;;2.33;100.00;103352.56;5024878;28;20128;-75
2024/01/31 06:57:42;;;;;;;3.45;1.80;;;;;;;2.35;100.00;103346.53;5026052;28;20043;-75
2024/01/31 07:00:28;;;;;;;4.28;1.90;;;;;;;2.39;100.00;103348.38;5023883;28;20045;-74
2024/01/31 07:03:14;;;;;;;3.38;1.80;;;;;;;2.43;100.00;103341.50;5028021;28;20041;-74
2024/01/31 07:06:00;;;;;;;4.40;2.10;;;;;;;2.46;100.00;103338.09;5023940;28;20033;-74
2024/01/31 07:08:49;;;;;;;2.28;1.70;;;;;;;2.49;100.00;103322.47;5026470;28;20041;-75
2024/01/31 07:11:34;;;;;;;4.82;2.25;;;;;;;2.52;100.00;103322.59;5027048;28;20804;-74
2024/01/31 07:14:20;;;;;;;3.80;2.08;;;;;;;2.55;100.00;103320.03;5024398;28;20041;-74
2024/01/31 07:17:06;;;;;;;4.13;2.08;;;;;;;2.57;100.00;103307.91;5015328;28;20041;-75
2024/01/31 07:19:52;;;;;;;4.05;2.03;;;;;;;2.57;100.00;103305.31;5023461;28;20037;-73
2024/01/31 07:22:39;;;;;;;3.42;2.17;;;;;;;2.59;100.00;103303.59;5022978;28;20132;-75
2024/01/31 07:25:25;;;;;;;2.70;1.90;;;;;;;2.63;100.00;103299.34;5026661;28;20111;-73
2024/01/31 07:28:10;;;;;;;3.70;2.20;;;;;;;2.65;100.00;103298.53;5023847;28;20051;-73
2024/01/31 07:30:56;;;;;;;5.13;2.20;;;;;;;2.66;100.00;103300.31;5021361;28;20049;-74
2024/01/31 07:33:42;;;;;;;6.40;2.55;;;;;;;2.68;100.00;103302.97;5016828;28;20044;-73
2024/01/31 07:36:28;;;;;;;6.63;2.15;;;;;;;2.70;100.00;103296.03;5027302;28;20045;-75
2024/01/31 07:39:14;;;;;;;3.95;2.35;;;;;;;2.72;100.00;103289.13;5024908;28;20036;-75
2024/01/31 07:42:00;;;;;;;5.30;2.72;;;;;;;2.74;100.00;103291.78;5026249;28;21081;-75
2024/01/31 07:44:46;;;;;;;4.38;2.60;;;;;;;2.78;100.00;103304.13;5023045;28;20540;-74
2024/01/31 07:47:32;;;;;;;4.97;2.53;;;;;;;2.81;100.00;103289.38;5025189;28;20041;-73
2024/01/31 07:50:17;;;;;;;5.05;3.10;;;;;;;2.87;100.00;103293.00;5023722;28;20472;-75
2024/01/31 07:53:03;;;;;;;5.95;3.08;;;;;;;2.89;100.00;103293.94;5028231;28;20073;-73
2024/01/31 07:55:49;;;;;;;5.28;3.65;;;;;;;2.93;100.00;103288.81;5027146;28;20507;-75
2024/01/31 07:58:35;;;;;;;6.53;3.38;;;;;;;2.96;100.00;103277.53;5031645;28;20631;-76
2024/01/31 08:01:20;;;;;;;8.88;3.97;;;;;;;3.02;100.00;103276.78;5024944;28;20068;-74
2024/01/31 08:04:07;;;;;;;6.10;4.07;;;;;;;3.04;100.00;103273.38;5022756;28;20040;-75
2024/01/31 08:06:53;;;;;;;6.90;4.38;;;;;;;3.07;100.00;103281.31;5024689;28;20061;-74
2024/01/31 08:09:39;;;;;;;6.47;4.13;;;;;;;3.11;100.00;103283.16;5025689;28;20048;-75
2024/01/31 08:12:26;;;;;;;6.68;4.20;;;;;;;3.16;100.00;103274.53;5023963;28;20037;-75
2024/01/31 08:15:12;;;;;;;6.55;4.45;;;;;;;3.19;100.00;103278.13;5023115;28;20489;-75
2024/01/31 08:17:58;;;;;;;6.97;4.75;;;;;;;3.22;100.00;103258.97;5033197;28;20023;-74
2024/01/31 08:20:44;;;;;;;8.25;4.70;;;;;;;3.26;100.00;103272.19;5021232;28;20495;-73
2024/01/31 08:23:29;;;;;;;7.65;4.50;;;;;;;3.29;100.00;103286.19;5023171;28;20045;-74
2024/01/31 08:26:18;;;;;;;7.15;4.90;;;;;;;3.33;100.00;103288.91;5019759;28;20041;-74
2024/01/31 08:29:04;;;;;;;8.50;4.97;;;;;;;3.35;100.00;103279.38;5020178;28;20434;-73
2024/01/31 08:31:50;;;;;;;8.95;5.28;;;;;;;3.37;100.00;103272.44;5020031;28;20647;-75
2024/01/31 08:34:35;;;;;;;9.98;5.32;;;;;;;3.38;100.00;103263.72;5009458;28;20419;-74
2024/01/31 08:37:21;;;;;;;8.23;5.10;;;;;;;3.39;100.00;103262.88;5015357;28;20504;-74
2024/01/31 08:40:14;;;;;;;8.50;4.93;;;;;;;3.42;100.00;103262.06;5018470;28;20037;-74
2024/01/31 08:43:00;;;;;;;9.20;4.55;;;;;;;3.45;100.00;103261.25;5021934;28;20116;-73
2024/01/31 08:45:46;;;;;;;7.72;4.38;;;;;;;3.47;100.00;103255.19;5004766;28;20037;-73
2024/01/31 08:48:31;;;;;;;8.07;4.88;;;;;;;3.50;100.00;103251.78;5025095;28;20077;-73
2024/01/31 08:51:18;;;;;;;9.15;5.07;;;;;;;3.54;100.00;103245.72;5023174;28;20041;-73
2024/01/31 08:54:05;;;;;;;9.90;5.00;;;;;;;3.56;100.00;103236.19;5027243;28;20163;-73
2024/01/31 08:56:51;;;;;;;8.50;5.55;;;;;;;3.60;100.00;103221.44;5013070;28;20045;-74
2024/01/31 08:59:38;;;;;;;9.00;5.68;;;;;;;3.62;100.00;103212.75;5008061;28;20041;-74
2024/01/31 09:02:23;;;;;;;11.88;6.35;;;;;;;3.65;100.00;103225.91;5013515;28;20040;-74
2024/01/31 09:05:10;;;;;;;10.35;5.35;;;;;;;3.71;100.00;103238.25;5022191;28;20044;-74
2024/01/31 09:07:59;;;;;;;10.98;5.88;;;;;;;3.75;100.00;103239.19;5000503;28;20037;-72
2024/01/31 09:10:45;;;;;;;9.80;5.78;;;;;;;3.80;100.00;103243.72;5021849;28;20093;-74
2024/01/31 09:13:30;;;;;;;10.40;6.13;;;;;;;3.86;100.00;103247.31;5021595;28;20470;-74
2024/01/31 09:16:16;;;;;;;11.68;6.63;;;;;;;3.89;100.00;103242.13;5023553;28;20025;-74
2024/01/31 09:19:03;;;;;;;9.70;6.15;;;;;;;3.93;100.00;103233.47;5018292;28;20039;-74
2024/01/31 09:21:50;;;;;;;10.18;5.63;;;;;;;3.99;100.00;103235.34;5026180;28;20034;-74
2024/01/31 09:24:37;;;;;;;9.70;5.68;;;;;;;4.02;100.00;103231.03;5023229;28;20030;-74
2024/01/31 09:27:23;;;;;;;8.77;5.43;;;;;;;4.06;100.00;103238.13;5008062;28;20037;-74
2024/01/31 09:30:14;;;;;;;10.80;6.20;;;;;;;4.11;100.00;103232.06;5018563;28;20105;-73
2024/01/31 09:33:00;;;;;;;9.57;5.55;;;;;;;4.14;100.00;103227.78;5005136;28;20048;-74
2024/01/31 09:35:46;;;;;;;10.73;5.70;;;;;;;4.19;100.00;103223.50;5022386;28;20041;-75
2024/01/31 09:38:32;;;;;;;10.35;5.90;;;;;;;4.21;100.00;103219.16;5023140;28;20102;-74
2024/01/31 09:41:19;;;;;;;12.85;6.07;;;;;;;4.26;100.00;103219.28;5008021;28;20128;-74
2024/01/31 09:44:04;;;;;;;9.95;5.72;;;;;;;4.28;100.00;103220.19;5004232;28;20049;-73
2024/01/31 09:46:52;;;;;;;10.00;5.80;;;;;;;4.33;100.00;103222.91;5001145;28;20794;-73
2024/01/31 09:49:37;;;;;;;10.88;6.35;;;;;;;4.37;100.00;103213.34;5002774;28;20045;-73
2024/01/31 09:52:28;;;;;;;10.65;5.95;;;;;;;4.39;100.00;103212.53;5003402;28;20029;-72
2024/01/31 09:55:14;;;;;;;10.70;5.53;;;;;;;4.43;100.00;103218.72;5002948;28;20159;-73
2024/01/31 09:58:01;;;;;;;11.23;6.13;;;;;;;4.45;100.00;103216.97;5005082;28;20057;-74
2024/01/31 10:00:50;;;;;;;9.60;5.65;;;;;;;4.47;100.00;103224.03;4998357;28;20447;-74
2024/01/31 10:03:36;;;;;;;13.00;6.63;;;;;;;4.52;100.00;103223.25;5008063;28;21058;-73
2024/01/31 10:06:26;;;;;;;11.75;6.70;;;;;;;4.52;100.00;103216.25;5005001;28;20048;-74
2024/01/31 10:09:13;;;;;;;10.23;5.78;;;;;;;4.55;100.00;103212.78;5005963;28;20045;-72
2024/01/31 10:11:59;;;;;;;10.32;5.80;;;;;;;4.56;100.00;103217.19;5003826;28;20429;-74
2024/01/31 10:14:53;;;;;;;12.25;6.00;;;;;;;4.58;100.00;103205.00;5003005;28;20042;-74
2024/01/31 10:17:38;;;;;;;11.77;5.55;;;;;;;4.59;100.00;103197.13;5005284;28;20073;-74
2024/01/31 10:20:27;;;;;;;9.95;5.88;;;;;;;4.61;100.00;103194.53;5004614;28;20037;-73
2024/01/31 10:23:15;;;;;;;11.52;6.28;;;;;;;4.64;100.00;103198.97;5004718;28;20052;-76
2024/01/31 10:26:05;;;;;;;11.75;6.60;;;;;;;4.67;100.00;103185.88;4998215;28;20061;-73
2024/01/31 10:28:51;;;;;;;10.13;6.10;;;;;;;4.70;100.00;103184.22;5008786;28;20041;-73
2024/01/31 10:31:37;;;;;;;11.48;6.03;;;;;;;4.72;100.00;103178.97;5007294;28;20041;-73
2024/01/31 10:34:26;;;;;;;9.10;5.57;;;;;;;4.73;100.00;103165.88;5003854;28;20048;-73
2024/01/31 10:37:15;;;;;;;9.02;5.35;;;;;;;4.77;100.00;103161.56;5009689;28;20901;-75
2024/01/31 10:40:03;;;;;;;8.52;5.25;;;;;;;4.80;100.00;103163.34;4997990;28;20042;-74
2024/01/31 10:42:50;;;;;;;9.02;4.80;;;;;;;4.83;100.00;103155.50;4996519;28;20045;-74
2024/01/31 10:45:36;;;;;;;7.07;4.47;;;;;;;4.83;100.00;103145.00;4994497;28;20049;-73
2024/01/31 10:48:21;;;;;;;8.07;4.72;;;;;;;4.85;100.00;103141.56;5002748;28;20037;-74
2024/01/31 10:51:08;;;;;;;7.63;4.75;;;;;;;4.86;100.00;103134.59;5009984;28;20096;-74
2024/01/31 10:53:58;;;;;;;8.60;4.88;;;;;;;4.85;100.00;103127.56;4996699;28;20531;-73
2024/01/31 10:56:45;;;;;;;6.95;4.10;;;;;;;4.84;100.00;103128.41;5002359;28;20911;-73
2024/01/31 10:59:37;;;;;;;7.65;4.55;;;;;;;4.86;100.00;103114.44;4995981;28;20050;-74
2024/01/31 11:02:33;;;;;;;8.70;4.75;;;;;;;4.86;100.00;103111.81;5000198;28;20124;-74
2024/01/31 11:05:19;;;;;;;11.40;5.40;;;;;;;4.87;100.00;103108.38;4996158;28;20451;-73
2024/01/31 11:08:05;;;;;;;9.55;4.50;;;;;;;4.86;100.00;103090.81;4998327;28;20026;-73
2024/01/31 11:10:54;;;;;;;8.57;4.43;;;;;;;4.88;100.00;103082.97;5002374;28;20034;-73
2024/01/31 11:13:40;;;;;;;6.35;3.97;;;;;;;4.88;100.00;103080.34;5002697;28;20040;-74
2024/01/31 11:16:25;;;;;;;10.48;5.40;;;;;;;4.86;100.00;103080.31;4995919;28;20071;-73
2024/01/31 11:19:19;;;;;;;9.23;4.50;;;;;;;4.87;100.00;103065.47;5004734;28;20530;-73
2024/01/31 11:22:06;;;;;;;8.60;4.97;;;;;;;4.85;100.00;103054.94;5008107;28;20642;-73
2024/01/31 11:24:54;;;;;;;8.85;5.40;;;;;;;4.85;100.00;103044.44;5002099;28;20152;-73
2024/01/31 11:27:41;;;;;;;8.55;4.97;;;;;;;4.86;100.00;103040.94;5005337;28;20045;-73
2024/01/31 11:30:27;;;;;;;7.55;4.70;;;;;;;4.89;100.00;103040.09;5008366;28;20117;-73
2024/01/31 11:33:13;;;;;;;9.70;4.53;;;;;;;4.90;100.00;103023.50;5004872;28;20477;-73
2024/01/31 11:36:01;;;;;;;7.43;4.75;;;;;;;4.93;100.00;103013.06;5005212;28;20033;-72
2024/01/31 11:38:47;;;;;;;8.93;4.72;;;;;;;4.95;100.00;103020.97;5005151;28;20231;-72
2024/01/31 11:41:33;;;;;;;7.55;4.75;;;;;;;4.99;100.00;103031.50;5009627;28;20037;-71
2024/01/31 11:44:19;;;;;;;7.57;5.07;;;;;;;5.01;100.00;103014.03;5008355;28;20172;-73
2024/01/31 11:47:05;;;;;;;9.70;5.38;;;;;;;5.05;100.00;103019.34;5005721;28;20548;-72
2024/01/31 11:49:51;;;;;;;6.82;3.85;;;;;;;5.08;100.00;103022.88;5005951;28;20041;-73
2024/01/31 11:52:37;;;;;;;8.82;4.65;;;;;;;5.09;100.00;103019.38;5005239;28;20037;-73
2024/01/31 11:55:25;;;;;;;7.03;5.07;;;;;;;5.11;100.00;103003.63;4988577;28;20034;-73
2024/01/31 11:58:11;;;;;;;7.55;4.65;;;;;;;5.14;100.00;103003.69;5005345;28;20122;-73
2024/01/31 12:00:57;;;;;;;8.27;4.55;;;;;;;5.16;100.00;102996.69;5000120;28;20069;-72
2024/01/31 12:03:44;;;;;;;6.10;4.30;;;;;;;5.17;100.00;102982.69;5003446;28;20030;-73
2024/01/31 12:06:30;;;;;;;8.75;4.35;;;;;;;5.17;100.00;102974.81;5004874;28;20118;-73
2024/01/31 12:09:16;;;;;;;7.18;4.13;;;;;;;5.20;100.00;102966.97;5006342;28;20042;-72
2024/01/31 12:12:02;;;;;;;6.53;4.28;;;;;;;5.21;100.00;102959.97;5003001;28;20030;-72
2024/01/31 12:14:48;;;;;;;6.30;4.30;;;;;;;5.23;100.00;102959.13;5003310;28;20460;-73
2024/01/31 12:17:34;;;;;;;7.05;4.38;;;;;;;5.26;100.00;102953.94;5010209;28;20119;-72
2024/01/31 12:20:21;;;;;;;6.07;4.05;;;;;;;5.27;100.00;102952.16;5007083;28;20195;-73
2024/01/31 12:23:07;;;;;;;6.85;3.97;;;;;;;5.29;100.00;102956.56;5005882;28;20034;-72
2024/01/31 12:25:52;;;;;;;6.15;4.30;;;;;;;5.29;100.00;102956.56;5003454;28;20114;-72
2024/01/31 12:28:41;;;;;;;8.60;4.28;;;;;;;5.31;100.00;102948.72;5003552;28;20038;-72
2024/01/31 12:31:27;;;;;;;6.70;4.60;;;;;;;5.34;100.00;102945.25;5000011;28;20116;-72
2024/01/31 12:34:17;;;;;;;9.73;4.90;;;;;;;5.35;100.00;102929.50;4999415;28;20700;-72
2024/01/31 12:37:03;;;;;;;8.40;4.95;;;;;;;5.38;100.00;102923.38;5002509;28;20037;-73
2024/01/31 12:39:49;;;;;;;9.45;4.43;;;;;;;5.39;100.00;102925.16;5002212;28;20046;-72
2024/01/31 12:42:35;;;;;;;7.45;5.10;;;;;;;5.39;100.00;102914.66;5001179;28;20042;-73
2024/01/31 12:45:20;;;;;;;7.60;4.93;;;;;;;5.39;100.00;102906.78;4999727;28;20049;-72
2024/01/31 12:48:07;;;;;;;9.50;5.65;;;;;;;5.38;100.00;102907.59;4999366;28;20132;-72
2024/01/31 12:50:53;;;;;;;9.63;5.00;;;;;;;5.38;100.00;102898.00;5000053;28;20099;-71
2024/01/31 12:53:41;;;;;;;9.05;5.70;;;;;;;5.39;100.00;102896.25;5008030;28;20060;-72